Time;durP1;ratioP1;P1;durP2;ratioP2;P2;SDS_P1;SDS_P2;PMS_P1;PMS_P2;Temp;Humidity;BMP_temperature;BMP_pressure;BME280_temperature;BME280_humidity;BME280_pressure;Samples;Min_cycle;Max_cycle;Signal;HPM_P1;HPM_P2
2021/04/21 00:01:58;;;;;;;11.50;6.83;;;7.20;99.90;;;;;;5034559;28;20174;-82
2021/04/21 00:04:26;;;;;;;10.10;6.47;;;7.20;99.90;;;;;;5051840;28;20222;-83
2021/04/21 00:06:53;;;;;;;5.97;5.23;;;7.10;99.90;;;;;;5050128;28;20283;-86
2021/04/21 00:09:21;;;;;;;7.63;5.17;;;6.90;99.90;;;;;;5050021;28;20564;-83
2021/04/21 00:11:49;;;;;;;8.37;6.87;;;6.80;99.90;;;;;;5049725;28;20241;-83
2021/04/21 00:14:19;;;;;;;9.30;6.17;;;6.80;99.90;;;;;;5066048;28;20308;-82
2021/04/21 00:16:47;;;;;;;7.33;5.83;;;6.80;99.90;;;;;;5036980;28;20217;-82
2021/04/21 00:19:16;;;;;;;7.67;6.97;;;6.70;99.90;;;;;;5051667;28;20181;-82
2021/04/21 00:21:44;;;;;;;13.27;7.87;;;6.70;99.90;;;;;;5051746;28;20210;-83
2021/04/21 00:24:10;;;;;;;5.90;5.17;;;6.80;99.90;;;;;;5050388;28;20237;-83
2021/04/21 00:26:37;;;;;;;9.60;7.03;;;6.80;99.90;;;;;;5018450;28;20299;-83
2021/04/21 00:29:08;;;;;;;9.47;8.00;;;6.80;99.90;;;;;;5052284;28;20287;-84
2021/04/21 00:31:34;;;;;;;5.93;5.33;;;6.80;99.90;;;;;;5053895;28;20196;-82
2021/04/21 00:34:02;;;;;;;14.53;6.63;;;6.90;99.90;;;;;;5035085;28;20295;-85
2021/04/21 00:36:32;;;;;;;11.37;6.50;;;6.90;99.90;;;;;;5034294;28;20270;-82
2021/04/21 00:39:00;;;;;;;12.73;6.77;;;6.90;99.90;;;;;;5050763;28;20220;-82
2021/04/21 00:41:46;;;;;;;6.87;5.63;;;6.90;99.90;;;;;;5059994;28;20237;-83
2021/04/21 00:44:41;;;;;;;9.57;5.63;;;6.90;99.90;;;;;;5061586;28;20225;-82
2021/04/21 00:47:11;;;;;;;10.00;3.83;;;6.80;99.90;;;;;;5052702;28;20212;-82
2021/04/21 00:50:01;;;;;;;6.73;4.60;;;6.70;99.90;;;;;;5054536;28;20192;-82
2021/04/21 00:52:42;;;;;;;6.97;4.13;;;6.60;99.90;;;;;;5062127;28;20225;-82
2021/04/21 00:55:15;;;;;;;7.03;6.03;;;6.50;99.90;;;;;;5053822;28;20228;-84
2021/04/21 00:57:50;;;;;;;5.57;4.23;;;6.50;99.90;;;;;;5052842;28;20229;-84
2021/04/21 01:00:20;;;;;;;4.70;4.27;;;6.40;99.90;;;;;;5052763;28;20223;-82
2021/04/21 01:02:54;;;;;;;7.87;5.50;;;6.40;99.90;;;;;;5051976;28;20213;-82
2021/04/21 01:05:29;;;;;;;7.27;4.30;;;6.50;99.90;;;;;;5071521;28;20244;-82
2021/04/21 01:08:02;;;;;;;6.10;5.67;;;6.50;99.90;;;;;;5053783;28;20177;-84
2021/04/21 01:10:33;;;;;;;5.27;4.77;;;6.50;99.90;;;;;;5054928;28;20188;-82
2021/04/21 01:13:01;;;;;;;5.37;4.97;;;6.60;99.90;;;;;;5052210;28;20227;-83
2021/04/21 01:15:28;;;;;;;6.63;6.03;;;6.60;99.90;;;;;;5051242;28;20213;-84
2021/04/21 01:17:55;;;;;;;7.80;6.20;;;6.60;99.90;;;;;;5050533;28;20252;-83
2021/04/21 01:20:30;;;;;;;6.70;6.00;;;6.50;99.90;;;;;;5049943;28;20267;-81
2021/04/21 01:23:34;;;;;;;15.23;6.80;;;6.50;99.90;;;;;;5051227;28;20254;-82
2021/04/21 01:26:37;;;;;;;6.17;5.00;;;6.60;99.90;;;;;;5054271;28;20211;-81
2021/04/21 01:29:05;;;;;;;6.13;5.17;;;6.60;99.90;;;;;;5068578;28;20231;-82
2021/04/21 01:31:33;;;;;;;6.90;6.17;;;6.60;99.90;;;;;;5068650;28;20185;-82
2021/04/21 01:34:01;;;;;;;12.57;6.77;;;6.50;99.90;;;;;;5034684;28;20225;-83
2021/04/21 01:36:28;;;;;;;15.10;8.97;;;6.60;99.90;;;;;;5053235;28;20290;-83
2021/04/21 01:38:58;;;;;;;8.23;6.13;;;6.60;99.90;;;;;;5054477;28;20297;-82
2021/04/21 01:41:30;;;;;;;6.83;5.93;;;6.60;99.90;;;;;;5070441;28;20252;-82
2021/04/21 01:44:03;;;;;;;7.33;6.07;;;6.50;99.90;;;;;;5069300;28;20225;-82
2021/04/21 01:46:34;;;;;;;7.93;6.17;;;6.60;99.90;;;;;;5073765;28;20322;-82
2021/04/21 01:49:23;;;;;;;6.50;5.90;;;6.60;99.90;;;;;;5068548;28;20209;-82
2021/04/21 01:52:21;;;;;;;8.80;7.67;;;6.70;99.90;;;;;;5043219;28;20553;-82
2021/04/21 01:54:51;;;;;;;5.93;5.30;;;6.70;99.90;;;;;;5066940;28;20300;-81
2021/04/21 01:57:26;;;;;;;11.57;6.47;;;6.80;99.90;;;;;;5048678;28;20224;-82
2021/04/21 02:00:00;;;;;;;8.80;6.90;;;6.80;99.90;;;;;;5056545;28;20593;-82
2021/04/21 02:02:36;;;;;;;9.70;6.37;;;6.70;99.90;;;;;;5054526;28;20224;-82
2021/04/21 02:05:23;;;;;;;10.50;8.23;;;6.60;99.90;;;;;;5073434;28;20822;-82
2021/04/21 02:08:13;;;;;;;11.67;7.00;;;6.60;99.90;;;;;;5055082;28;21918;-83
2021/04/21 02:11:01;;;;;;;8.87;6.50;;;6.60;99.90;;;;;;5063186;28;20197;-82
2021/04/21 02:14:04;;;;;;;10.27;7.43;;;6.50;99.90;;;;;;5075271;28;20308;-83
2021/04/21 02:16:42;;;;;;;6.53;5.83;;;6.50;99.90;;;;;;5057279;28;20293;-82
2021/04/21 02:19:31;;;;;;;10.20;7.17;;;6.50;99.90;;;;;;5055793;28;20212;-83
2021/04/21 02:22:26;;;;;;;15.63;7.33;;;6.50;99.90;;;;;;5072793;28;20235;-83
2021/04/21 02:25:10;;;;;;;6.70;5.87;;;6.60;99.90;;;;;;5058427;28;20307;-82
2021/04/21 02:27:59;;;;;;;13.10;7.77;;;6.60;99.90;;;;;;5072033;28;20229;-82
2021/04/21 02:30:45;;;;;;;11.10;8.20;;;6.70;99.90;;;;;;5053609;28;20212;-83
2021/04/21 02:33:15;;;;;;;8.80;7.73;;;6.70;99.90;;;;;;5055286;28;20228;-82
2021/04/21 02:35:48;;;;;;;7.90;6.83;;;6.70;99.90;;;;;;5073753;28;20216;-83
2021/04/21 02:38:44;;;;;;;14.97;8.47;;;6.70;99.90;;;;;;5072131;28;20220;-82
2021/04/21 02:41:19;;;;;;;16.40;8.77;;;6.80;99.90;;;;;;5040928;28;20319;-83
2021/04/21 02:43:57;;;;;;;13.27;9.43;;;6.90;99.90;;;;;;5053535;28;20256;-83
2021/04/21 02:46:53;;;;;;;13.67;11.13;;;7.00;99.90;;;;;;5057031;28;20177;-82
2021/04/21 02:49:45;;;;;;;14.10;6.33;;;7.00;99.90;;;;;;5053745;28;20216;-81
2021/04/21 02:52:22;;;;;;;12.90;11.40;;;6.90;99.90;;;;;;5072694;28;20605;-82
2021/04/21 02:55:03;;;;;;;12.27;9.13;;;6.90;99.90;;;;;;5056570;28;20324;-82
2021/04/21 02:57:56;;;;;;;15.23;8.37;;;6.90;99.90;;;;;;5073280;28;20332;-83
2021/04/21 03:00:34;;;;;;;11.03;9.93;;;7.00;99.90;;;;;;5054737;28;20243;-83
2021/04/21 03:03:32;;;;;;;9.53;8.57;;;7.00;99.90;;;;;;5055375;28;20212;-83
2021/04/21 03:06:26;;;;;;;13.67;9.07;;;7.00;99.90;;;;;;5055582;28;20727;-83
2021/04/21 03:09:00;;;;;;;12.70;9.03;;;7.10;99.90;;;;;;5026887;28;20295;-83
2021/04/21 03:11:31;;;;;;;15.67;11.07;;;7.20;99.90;;;;;;5069886;28;20240;-80
2021/04/21 03:14:21;;;;;;;15.83;11.43;;;7.30;99.90;;;;;;5070909;28;20238;-81
2021/04/21 03:16:57;;;;;;;20.07;11.23;;;7.30;99.90;;;;;;5072775;28;20185;-82
2021/04/21 03:19:47;;;;;;;12.03;8.87;;;7.40;99.90;;;;;;5074437;28;20215;-82
2021/04/21 03:22:14;;;;;;;13.47;10.87;;;7.40;99.90;;;;;;5071959;28;20225;-82
2021/04/21 03:25:12;;;;;;;12.93;7.80;;;7.50;99.90;;;;;;5052641;28;20216;-81
2021/04/21 03:27:42;;;;;;;10.73;7.50;;;7.30;99.90;;;;;;5045505;28;20269;-81
2021/04/21 03:30:12;;;;;;;8.97;7.10;;;7.30;99.90;;;;;;5052472;28;20205;-82
2021/04/21 03:32:41;;;;;;;9.43;8.40;;;7.30;99.90;;;;;;5055655;28;20679;-81
2021/04/21 03:35:09;;;;;;;8.50;7.63;;;7.20;99.90;;;;;;5054525;28;20216;-81
2021/04/21 03:37:53;;;;;;;12.57;7.90;;;7.10;99.90;;;;;;5056081;28;20193;-84
2021/04/21 03:40:19;;;;;;;8.60;7.13;;;7.00;99.90;;;;;;5052897;28;20255;-81
2021/04/21 03:42:45;;;;;;;8.53;5.80;;;7.10;99.90;;;;;;5071844;28;20498;-83
2021/04/21 03:45:12;;;;;;;11.43;7.90;;;7.10;99.90;;;;;;5068121;28;21023;-83
2021/04/21 03:47:39;;;;;;;9.67;6.37;;;7.40;99.90;;;;;;5066717;28;20217;-83
2021/04/21 03:50:08;;;;;;;10.50;6.43;;;7.70;99.90;;;;;;5076209;28;20216;-83
2021/04/21 03:52:37;;;;;;;9.27;7.33;;;7.80;99.90;;;;;;5075688;28;20194;-83
2021/04/21 03:55:04;;;;;;;7.07;6.13;;;7.90;99.90;;;;;;5052570;28;20209;-83
2021/04/21 03:57:32;;;;;;;6.80;5.80;;;7.90;99.90;;;;;;5054140;28;20209;-83
2021/04/21 04:00:01;;;;;;;10.30;7.37;;;8.00;99.90;;;;;;5072644;28;20252;-83
2021/04/21 04:02:31;;;;;;;11.10;7.57;;;8.00;99.90;;;;;;5073986;28;20227;-82
2021/04/21 04:05:02;;;;;;;11.73;6.63;;;8.10;99.90;;;;;;5061345;28;20204;-82
2021/04/21 04:07:29;;;;;;;13.07;6.70;;;8.10;99.90;;;;;;5073168;28;20177;-83
2021/04/21 04:10:01;;;;;;;8.00;6.40;;;8.10;99.90;;;;;;5051609;28;20221;-83
2021/04/21 04:12:32;;;;;;;12.23;8.60;;;8.10;99.90;;;;;;5071218;28;20378;-83
2021/04/21 04:15:01;;;;;;;10.07;8.47;;;8.10;99.90;;;;;;5051735;28;20226;-83
2021/04/21 04:17:29;;;;;;;14.60;8.73;;;8.10;99.90;;;;;;5068913;28;20221;-83
2021/04/21 04:19:59;;;;;;;16.23;7.63;;;8.20;99.90;;;;;;5055869;28;20187;-83
2021/04/21 04:22:30;;;;;;;20.83;9.07;;;8.20;99.90;;;;;;5053579;28;20184;-84
2021/04/21 04:24:57;;;;;;;13.90;9.40;;;8.30;99.90;;;;;;5071252;28;20279;-83
2021/04/21 04:27:25;;;;;;;12.40;10.53;;;8.30;99.90;;;;;;5069060;28;20221;-84
2021/04/21 04:29:52;;;;;;;14.10;11.03;;;8.40;99.90;;;;;;5044801;28;20347;-84
2021/04/21 04:32:20;;;;;;;15.00;9.70;;;8.40;99.90;;;;;;5053377;28;20225;-83
2021/04/21 04:34:55;;;;;;;12.93;10.07;;;8.40;99.90;;;;;;5070932;28;20185;-84
2021/04/21 04:37:24;;;;;;;8.37;5.53;;;8.40;99.90;;;;;;5065370;28;20233;-84
2021/04/21 04:39:54;;;;;;;16.87;11.00;;;8.50;99.90;;;;;;5071201;28;20232;-83
2021/04/21 04:42:20;;;;;;;11.17;9.53;;;8.50;99.90;;;;;;5047559;28;20275;-83
2021/04/21 04:44:47;;;;;;;14.30;9.20;;;8.50;99.90;;;;;;5033136;28;20257;-83
2021/04/21 04:47:20;;;;;;;20.83;12.20;;;8.60;99.90;;;;;;5047385;28;20322;-83
2021/04/21 04:49:54;;;;;;;13.87;10.10;;;8.70;99.90;;;;;;5054543;28;20201;-83
2021/04/21 04:52:21;;;;;;;13.40;9.10;;;8.80;99.90;;;;;;5054650;28;20277;-83
2021/04/21 04:54:49;;;;;;;19.47;12.00;;;8.90;99.90;;;;;;5049715;28;20224;-83
2021/04/21 04:57:20;;;;;;;13.33;11.03;;;8.90;99.90;;;;;;5045993;28;20455;-84
2021/04/21 04:59:49;;;;;;;16.90;10.90;;;9.00;99.90;;;;;;5049464;28;20251;-84
2021/04/21 05:02:18;;;;;;;15.00;9.73;;;8.90;99.90;;;;;;5047011;28;20233;-85
2021/04/21 05:04:57;;;;;;;18.80;11.53;;;9.00;99.90;;;;;;5027130;28;20221;-84
2021/04/21 05:07:33;;;;;;;19.17;12.20;;;9.00;99.90;;;;;;5053334;28;20193;-83
2021/04/21 05:10:05;;;;;;;20.83;9.80;;;9.10;99.90;;;;;;5048660;28;20611;-83
2021/04/21 05:12:37;;;;;;;22.97;9.57;;;9.10;99.90;;;;;;5051824;28;20220;-83
2021/04/21 05:15:05;;;;;;;18.73;9.73;;;9.10;99.90;;;;;;5050534;28;20264;-83
2021/04/21 05:17:49;;;;;;;16.90;9.90;;;9.10;99.90;;;;;;5034433;28;20225;-83
2021/04/21 05:20:20;;;;;;;8.70;6.73;;;9.10;99.90;;;;;;5048154;28;20221;-85
2021/04/21 05:23:48;;;;;;;24.63;11.87;;;9.00;99.90;;;;;;5051091;28;20182;-83
2021/04/21 05:26:35;;;;;;;19.07;8.63;;;8.90;99.90;;;;;;5003551;28;20244;-82
2021/04/21 05:29:34;;;;;;;13.23;9.23;;;8.90;99.90;;;;;;5038420;28;20182;-83
2021/04/21 05:32:12;;;;;;;14.13;7.63;;;8.80;99.90;;;;;;5041124;28;20271;-85
2021/04/21 05:35:06;;;;;;;20.87;7.83;;;8.80;99.90;;;;;;5051115;28;20367;-84
2021/04/21 05:37:50;;;;;;;12.43;8.10;;;8.70;99.90;;;;;;5048319;28;20218;-84
2021/04/21 05:40:52;;;;;;;7.47;3.97;;;8.60;99.90;;;;;;5051083;28;20213;-84
2021/04/21 05:43:35;;;;;;;14.57;7.30;;;8.60;99.90;;;;;;5045313;28;20263;-85
2021/04/21 05:46:39;;;;;;;17.47;7.40;;;8.60;99.90;;;;;;5031013;28;20272;-86
2021/04/21 05:49:42;;;;;;;14.30;8.07;;;8.70;99.90;;;;;;5030507;28;20221;-83
2021/04/21 05:52:45;;;;;;;26.20;10.33;;;8.80;99.90;;;;;;5028794;28;20271;-85
2021/04/21 05:55:55;;;;;;;15.73;7.40;;;8.90;99.90;;;;;;5047180;28;20273;-84
2021/04/21 05:58:23;;;;;;;24.20;8.13;;;8.90;99.90;;;;;;5030786;28;20271;-84
2021/04/21 06:01:04;;;;;;;11.00;8.07;;;9.00;99.90;;;;;;5030378;28;20676;-84
2021/04/21 06:03:34;;;;;;;12.97;8.03;;;9.00;99.90;;;;;;5029682;28;20230;-83
2021/04/21 06:06:04;;;;;;;12.37;7.13;;;9.00;99.90;;;;;;5032594;28;20221;-82
2021/04/21 06:08:31;;;;;;;22.20;12.13;;;9.00;99.90;;;;;;5012815;28;20223;-84
2021/04/21 06:10:57;;;;;;;16.10;10.27;;;9.00;99.90;;;;;;5025878;28;20195;-85
2021/04/21 06:13:33;;;;;;;19.77;8.57;;;9.00;99.90;;;;;;5026898;28;20309;-84
2021/04/21 06:16:00;;;;;;;20.30;9.67;;;9.00;99.90;;;;;;5030363;28;20221;-83
2021/04/21 06:18:26;;;;;;;20.63;12.60;;;9.00;99.90;;;;;;5010229;28;20228;-86
2021/04/21 06:20:53;;;;;;;23.17;11.23;;;9.00;99.90;;;;;;5007337;28;20301;-83
2021/04/21 06:23:21;;;;;;;20.37;11.00;;;8.90;99.90;;;;;;5042209;28;20232;-84
2021/04/21 06:26:01;;;;;;;19.93;9.23;;;9.00;99.90;;;;;;5026565;28;20217;-84
2021/04/21 06:28:27;;;;;;;16.03;8.97;;;9.00;99.90;;;;;;5012822;28;20198;-84
2021/04/21 06:31:11;;;;;;;15.50;10.73;;;9.00;99.90;;;;;;5011315;28;20269;-83
2021/04/21 06:33:45;;;;;;;12.67;6.77;;;9.00;99.90;;;;;;5031539;28;20230;-85
2021/04/21 06:36:13;;;;;;;12.70;7.07;;;9.00;99.90;;;;;;5031087;28;20214;-84
2021/04/21 06:38:40;;;;;;;14.83;8.60;;;9.00;99.90;;;;;;5027703;28;20320;-84
2021/04/21 06:41:06;;;;;;;9.90;7.07;;;9.00;99.90;;;;;;5034166;28;20286;-85
2021/04/21 06:43:34;;;;;;;16.77;10.03;;;9.00;99.90;;;;;;5032418;28;20217;-85
2021/04/21 06:46:00;;;;;;;10.47;7.03;;;9.00;99.90;;;;;;5049403;28;20218;-85
2021/04/21 06:48:36;;;;;;;9.23;6.90;;;8.90;99.90;;;;;;5049274;28;20737;-85
2021/04/21 06:51:13;;;;;;;9.43;6.00;;;8.80;99.90;;;;;;5035448;28;20217;-85
2021/04/21 06:53:40;;;;;;;8.83;5.17;;;8.80;99.90;;;;;;5052811;28;20210;-84
2021/04/21 06:56:06;;;;;;;13.77;7.90;;;8.70;99.90;;;;;;5052124;28;20236;-83
2021/04/21 06:58:37;;;;;;;11.50;5.57;;;8.70;99.90;;;;;;5055967;28;20623;-85
2021/04/21 07:01:24;;;;;;;12.80;7.83;;;8.70;99.90;;;;;;5052700;28;20225;-83
2021/04/21 07:03:51;;;;;;;8.07;4.90;;;8.70;99.90;;;;;;5054763;28;20221;-83
2021/04/21 07:06:16;;;;;;;9.07;4.63;;;8.70;99.90;;;;;;5053843;28;20274;-82
2021/04/21 07:08:42;;;;;;;10.33;5.80;;;8.70;99.90;;;;;;5034637;28;20220;-82
2021/04/21 07:11:10;;;;;;;6.97;4.43;;;8.70;99.90;;;;;;5050512;28;20225;-83
2021/04/21 07:13:49;;;;;;;8.10;4.77;;;8.70;99.90;;;;;;5056176;28;20634;-83
2021/04/21 07:16:24;;;;;;;5.30;4.37;;;8.70;99.90;;;;;;5034068;28;20221;-81
2021/04/21 07:18:59;;;;;;;5.27;3.97;;;8.60;99.90;;;;;;5049182;28;20316;-83
2021/04/21 07:21:27;;;;;;;1.90;1.80;;;8.60;99.90;;;;;;5051265;28;20251;-83
2021/04/21 07:23:56;;;;;;;3.17;2.23;;;8.60;99.90;;;;;;5049229;28;20276;-82
2021/04/21 07:26:48;;;;;;;4.00;3.00;;;8.70;99.90;;;;;;5053048;28;20221;-85
2021/04/21 07:29:21;;;;;;;3.03;2.40;;;8.60;99.90;;;;;;5063911;28;20320;-81
2021/04/21 07:31:47;;;;;;;3.23;2.73;;;8.70;99.90;;;;;;5051784;28;20231;-83
2021/04/21 07:34:26;;;;;;;4.17;2.63;;;8.70;99.90;;;;;;5034965;28;20182;-82
2021/04/21 07:36:52;;;;;;;1.60;1.50;;;8.80;99.90;;;;;;5053146;28;20212;-82
2021/04/21 07:39:18;;;;;;;1.40;1.23;;;8.70;99.90;;;;;;5034325;28;20216;-83
2021/04/21 07:41:50;;;;;;;0.93;0.93;;;8.80;99.90;;;;;;5034599;28;20757;-82
2021/04/21 07:44:36;;;;;;;2.40;1.70;;;8.90;99.90;;;;;;5054268;28;20238;-82
2021/04/21 07:47:05;;;;;;;0.80;0.80;;;9.00;99.90;;;;;;5050010;28;20308;-85
2021/04/21 07:49:32;;;;;;;1.07;0.97;;;9.10;99.90;;;;;;5051289;28;20206;-84
2021/04/21 07:51:58;;;;;;;0.80;0.80;;;9.20;99.90;;;;;;5053334;28;20217;-83
2021/04/21 07:54:26;;;;;;;1.50;1.07;;;9.40;99.90;;;;;;5051211;28;20279;-84
2021/04/21 07:56:59;;;;;;;0.80;0.80;;;9.50;99.90;;;;;;5049599;28;20236;-84
2021/04/21 07:59:50;;;;;;;4.23;1.03;;;9.60;99.90;;;;;;5053028;28;20312;-82
2021/04/21 08:02:21;;;;;;;0.57;0.57;;;9.70;99.90;;;;;;5050107;28;20230;-82
2021/04/21 08:04:58;;;;;;;1.90;1.00;;;10.60;99.90;;;;;;5051217;28;20202;-82
2021/04/21 08:07:34;;;;;;;6.90;1.27;;;11.20;99.90;;;;;;5052037;28;20193;-84
2021/04/21 08:10:02;;;;;;;1.53;1.40;;;11.00;99.90;;;;;;5048560;28;21562;-85
2021/04/21 08:12:30;;;;;;;0.50;0.50;;;10.90;99.90;;;;;;5051449;28;20217;-83
2021/04/21 08:14:59;;;;;;;3.80;0.70;;;10.80;99.90;;;;;;5054114;28;20355;-84
2021/04/21 08:17:25;;;;;;;2.83;0.70;;;11.30;99.90;;;;;;5050597;28;20229;-85
2021/04/21 08:19:56;;;;;;;2.40;0.77;;;11.90;99.90;;;;;;5036852;28;20194;-85
2021/04/21 08:22:28;;;;;;;7.10;0.90;;;11.30;99.90;;;;;;5052160;28;20193;-84
2021/04/21 08:24:55;;;;;;;4.97;1.67;;;10.90;99.90;;;;;;5055206;28;20231;-85
2021/04/21 08:27:22;;;;;;;2.67;0.70;;;12.00;99.90;;;;;;5054933;28;20236;-86
2021/04/21 08:29:50;;;;;;;4.57;1.57;;;12.90;99.90;;;;;;5047866;28;20972;-84
2021/04/21 08:32:25;;;;;;;0.50;0.30;;;12.60;99.90;;;;;;5049702;28;20217;-84
2021/04/21 08:34:51;;;;;;;8.43;0.80;;;12.50;99.90;;;;;;5052264;28;20193;-84
2021/04/21 08:37:18;;;;;;;6.47;1.20;;;13.20;99.90;;;;;;5049666;28;20185;-84
2021/04/21 08:39:45;;;;;;;2.53;0.97;;;13.00;99.90;;;;;;5046952;28;20285;-83
2021/04/21 08:42:12;;;;;;;8.00;1.43;;;13.30;99.90;;;;;;5053384;28;20248;-86
2021/04/21 08:44:43;;;;;;;3.20;1.20;;;13.80;99.90;;;;;;5050873;28;20252;-84
2021/04/21 08:47:15;;;;;;;2.33;0.97;;;14.10;99.90;;;;;;5036074;28;20683;-85
2021/04/21 08:49:42;;;;;;;5.33;1.53;;;14.20;99.90;;;;;;5053455;28;20638;-84
2021/04/21 08:52:10;;;;;;;6.63;0.90;;;14.40;99.90;;;;;;5034872;28;20217;-84
2021/04/21 08:54:36;;;;;;;5.53;0.70;;;13.80;99.90;;;;;;5050474;28;20231;-84
2021/04/21 08:57:03;;;;;;;4.60;0.83;;;13.80;99.90;;;;;;5026559;28;20213;-84
2021/04/21 08:59:29;;;;;;;2.93;0.87;;;14.00;99.90;;;;;;5050253;28;20337;-84
2021/04/21 09:01:56;;;;;;;5.50;1.00;;;14.30;99.90;;;;;;5049806;28;20285;-84
2021/04/21 09:04:22;;;;;;;2.87;0.93;;;14.30;99.90;;;;;;5052671;28;20234;-84
2021/04/21 09:06:48;;;;;;;2.37;1.00;;;14.20;99.90;;;;;;5034336;28;20210;-83
2021/04/21 09:09:15;;;;;;;6.27;0.90;;;14.50;99.90;;;;;;5034046;28;20205;-85
2021/04/21 09:11:42;;;;;;;4.60;1.73;;;14.90;99.90;;;;;;5033752;28;20259;-84
2021/04/21 09:14:08;;;;;;;1.80;1.17;;;15.20;99.90;;;;;;5065214;28;21130;-84
2021/04/21 09:16:34;;;;;;;4.67;0.87;;;13.90;99.90;;;;;;5051243;28;20186;-84
2021/04/21 09:19:08;;;;;;;2.20;0.77;;;13.40;99.90;;;;;;5048617;28;20213;-84
2021/04/21 09:21:34;;;;;;;4.10;0.83;;;13.30;99.90;;;;;;5048492;28;20549;-85
2021/04/21 09:24:00;;;;;;;1.70;0.67;;;13.00;99.90;;;;;;5048705;28;20717;-85
2021/04/21 09:26:33;;;;;;;2.13;1.93;;;13.00;99.90;;;;;;5025546;28;20221;-83
2021/04/21 09:28:59;;;;;;;5.63;1.43;;;12.00;99.90;;;;;;5046781;28;20181;-84
2021/04/21 09:31:27;;;;;;;18.20;1.80;;;11.70;99.90;;;;;;5052931;28;20188;-84
2021/04/21 09:34:13;;;;;;;3.93;1.17;;;11.60;99.90;;;;;;5050199;28;20217;-84
2021/04/21 09:36:42;;;;;;;6.10;0.87;;;11.10;99.90;;;;;;5048436;28;20271;-85
2021/04/21 09:39:10;;;;;;;0.60;0.60;;;10.80;99.90;;;;;;5050531;28;20205;-86
2021/04/21 09:41:37;;;;;;;6.97;1.53;;;11.10;99.90;;;;;;5032298;28;20234;-85
2021/04/21 09:44:20;;;;;;;2.57;0.40;;;11.30;99.90;;;;;;5048571;28;20251;-86
2021/04/21 09:46:48;;;;;;;2.77;1.27;;;11.50;99.90;;;;;;5048085;28;20269;-83
2021/04/21 09:49:28;;;;;;;6.57;0.90;;;12.20;99.90;;;;;;5052880;28;20186;-85
2021/04/21 09:51:56;;;;;;;6.30;0.77;;;12.20;99.90;;;;;;5050352;28;20226;-84
2021/04/21 09:54:37;;;;;;;2.27;1.27;;;11.50;99.90;;;;;;5045880;28;20289;-84
2021/04/21 09:57:08;;;;;;;0.97;0.60;;;11.10;99.90;;;;;;5032790;28;20249;-86
2021/04/21 09:59:34;;;;;;;2.90;1.13;;;11.40;99.90;;;;;;5049600;28;20622;-83
2021/04/21 10:02:00;;;;;;;3.80;1.33;;;11.80;99.90;;;;;;5049705;28;20599;-83
2021/04/21 10:04:26;;;;;;;2.27;0.80;;;12.10;99.90;;;;;;5034311;28;20214;-84
2021/04/21 10:06:57;;;;;;;3.30;1.23;;;12.80;99.90;;;;;;5046497;28;20251;-83
2021/04/21 10:09:34;;;;;;;5.50;2.03;;;13.50;99.90;;;;;;5050103;28;20205;-84
2021/04/21 10:12:16;;;;;;;3.30;1.23;;;13.50;99.90;;;;;;5048914;28;20259;-83
2021/04/21 10:14:45;;;;;;;4.27;1.43;;;13.90;99.90;;;;;;5048222;28;20229;-83
2021/04/21 10:17:14;;;;;;;2.70;1.00;;;13.80;99.90;;;;;;5051034;28;20259;-84
2021/04/21 10:19:41;;;;;;;6.53;1.33;;;13.80;99.90;;;;;;5050612;28;21062;-86
2021/04/21 10:22:10;;;;;;;1.93;0.90;;;13.80;99.90;;;;;;5036901;28;20257;-83
2021/04/21 10:24:36;;;;;;;9.10;1.80;;;13.50;99.90;;;;;;5052214;28;20410;-84
2021/04/21 10:27:04;;;;;;;4.67;1.50;;;13.60;99.90;;;;;;5051149;28;20822;-83
2021/04/21 10:29:30;;;;;;;7.80;1.77;;;14.20;99.90;;;;;;5035782;28;20213;-84
2021/04/21 10:31:57;;;;;;;3.43;1.70;;;14.50;99.90;;;;;;5051492;28;20777;-85
2021/04/21 10:34:25;;;;;;;2.50;1.50;;;14.10;99.90;;;;;;5053252;28;20655;-86
2021/04/21 10:36:51;;;;;;;1.03;0.80;;;14.10;99.90;;;;;;5053567;28;20210;-83
2021/04/21 10:39:32;;;;;;;3.87;1.43;;;13.70;99.90;;;;;;5036555;28;20335;-84
2021/04/21 10:42:04;;;;;;;1.90;0.93;;;13.70;99.90;;;;;;5051550;28;20234;-84
2021/04/21 10:44:31;;;;;;;6.83;1.50;;;13.60;99.90;;;;;;5052291;28;20234;-85
2021/04/21 10:47:02;;;;;;;5.77;1.50;;;13.50;99.90;;;;;;5050965;28;20185;-84
2021/04/21 10:49:38;;;;;;;7.40;1.70;;;12.10;99.90;;;;;;5052889;28;20197;-85
2021/04/21 10:52:14;;;;;;;6.37;1.50;;;12.70;99.90;;;;;;5051589;28;20237;-84
2021/04/21 10:54:41;;;;;;;7.50;2.57;;;12.50;99.90;;;;;;5053094;28;20272;-83
2021/04/21 10:57:22;;;;;;;1.67;1.27;;;12.30;99.90;;;;;;5037577;28;20228;-83
2021/04/21 11:00:12;;;;;;;3.37;1.47;;;11.90;99.90;;;;;;5053123;28;20326;-85
2021/04/21 11:02:41;;;;;;;4.57;1.63;;;12.10;99.90;;;;;;5043175;28;20213;-85
2021/04/21 11:05:09;;;;;;;3.57;1.50;;;12.30;99.90;;;;;;5050606;28;20710;-84
2021/04/21 11:07:35;;;;;;;3.63;1.87;;;12.30;99.90;;;;;;5040560;28;20192;-84
2021/04/21 11:10:02;;;;;;;3.37;1.67;;;11.90;99.90;;;;;;5046902;28;20213;-84
2021/04/21 11:12:50;;;;;;;0.50;0.50;;;12.00;99.90;;;;;;5031107;28;20768;-84
2021/04/21 11:15:41;;;;;;;5.87;2.93;;;12.40;99.90;;;;;;5045551;28;20745;-85
2021/04/21 11:18:10;;;;;;;5.13;2.13;;;12.50;99.90;;;;;;5046856;28;20213;-84
2021/04/21 11:20:45;;;;;;;3.97;1.90;;;11.60;99.90;;;;;;5047712;28;20233;-85
2021/04/21 11:23:51;;;;;;;0.87;0.87;;;12.10;99.90;;;;;;5046331;28;20253;-82
2021/04/21 11:26:30;;;;;;;1.43;1.10;;;12.50;99.90;;;;;;5062227;28;20236;-82
2021/04/21 11:29:12;;;;;;;2.67;1.57;;;11.90;99.90;;;;;;5047354;28;20251;-82
2021/04/21 11:31:41;;;;;;;0.97;0.87;;;11.60;99.90;;;;;;5047128;28;20265;-84
2021/04/21 11:34:19;;;;;;;7.23;1.63;;;11.10;99.90;;;;;;5047707;28;20249;-83
2021/04/21 11:36:58;;;;;;;2.57;1.03;;;11.50;99.90;;;;;;5053022;28;20225;-82
2021/04/21 11:39:46;;;;;;;5.97;1.67;;;12.20;99.90;;;;;;5033746;28;20219;-83
2021/04/21 11:42:34;;;;;;;6.27;1.00;;;12.50;99.90;;;;;;5050424;28;20236;-83
2021/04/21 11:45:11;;;;;;;6.67;2.07;;;12.10;99.90;;;;;;5051803;28;20233;-84
2021/04/21 11:47:41;;;;;;;1.77;1.20;;;11.80;99.90;;;;;;5050751;28;20227;-82
2021/04/21 11:50:09;;;;;;;5.67;1.80;;;12.00;99.90;;;;;;5053142;28;20236;-87
2021/04/21 11:52:45;;;;;;;4.97;1.50;;;11.90;99.90;;;;;;5053829;28;20189;-86
2021/04/21 11:55:22;;;;;;;0.97;0.70;;;12.10;99.90;;;;;;5056568;28;20217;-86
2021/04/21 11:58:17;;;;;;;3.30;1.40;;;12.20;99.90;;;;;;5052318;28;20220;-86
2021/04/21 12:00:52;;;;;;;7.67;1.30;;;11.90;99.90;;;;;;5043602;28;20238;-87
2021/04/21 12:03:28;;;;;;;0.33;0.33;;;12.20;99.90;;;;;;5051026;28;20229;-84
2021/04/21 12:05:59;;;;;;;3.53;0.83;;;11.80;99.90;;;;;;5055571;28;20221;-87
2021/04/21 12:08:27;;;;;;;7.67;1.40;;;12.00;99.90;;;;;;5067728;28;20242;-85
2021/04/21 12:10:55;;;;;;;3.20;0.97;;;11.40;99.90;;;;;;5050059;28;20185;-85
2021/04/21 12:13:37;;;;;;;8.37;1.17;;;11.60;99.90;;;;;;5036592;28;20181;-85
2021/04/21 12:16:19;;;;;;;2.70;1.43;;;11.50;99.90;;;;;;5054308;28;20218;-84
2021/04/21 12:18:50;;;;;;;0.97;0.87;;;11.70;99.90;;;;;;5052311;28;20213;-85
2021/04/21 12:21:15;;;;;;;3.77;0.93;;;11.60;99.90;;;;;;5050694;28;20293;-87
2021/04/21 12:23:46;;;;;;;3.47;1.50;;;11.60;99.90;;;;;;5049861;28;20309;-87
2021/04/21 12:26:24;;;;;;;1.97;1.13;;;11.50;99.90;;;;;;5049000;28;20217;-84
2021/04/21 12:28:57;;;;;;;0.83;0.83;;;11.30;99.90;;;;;;5045447;28;20175;-86
2021/04/21 12:31:24;;;;;;;0.97;0.97;;;11.30;99.90;;;;;;5052524;28;20189;-85
2021/04/21 12:33:51;;;;;;;7.40;1.93;;;11.60;99.90;;;;;;5053737;28;20205;-84
2021/04/21 12:36:19;;;;;;;7.90;1.53;;;11.60;99.90;;;;;;5051160;28;20233;-86
2021/04/21 12:39:10;;;;;;;0.77;0.73;;;11.40;99.90;;;;;;5047963;28;20247;-87
2021/04/21 12:41:38;;;;;;;4.43;1.27;;;11.00;99.90;;;;;;5045256;28;20233;-85
2021/04/21 12:44:18;;;;;;;7.83;1.60;;;10.80;99.90;;;;;;5048102;28;20260;-86
2021/04/21 12:46:46;;;;;;;1.23;1.00;;;11.50;99.90;;;;;;5048329;28;20280;-84
2021/04/21 12:49:12;;;;;;;3.53;1.40;;;11.50;99.90;;;;;;5051866;28;20202;-84
2021/04/21 12:51:46;;;;;;;0.70;0.67;;;11.10;99.90;;;;;;5032239;28;20884;-84
2021/04/21 12:54:30;;;;;;;0.50;0.50;;;10.80;99.90;;;;;;5035432;28;20577;-85
2021/04/21 12:56:56;;;;;;;11.50;1.57;;;10.90;99.90;;;;;;5048440;28;20232;-87
2021/04/21 12:59:21;;;;;;;1.07;0.93;;;10.80;99.90;;;;;;5051056;28;20230;-87
2021/04/21 13:01:47;;;;;;;1.53;0.90;;;10.90;99.90;;;;;;5048774;28;20476;-85
2021/04/21 13:04:17;;;;;;;2.10;1.17;;;10.50;99.90;;;;;;5033994;28;20217;-84
2021/04/21 13:06:47;;;;;;;5.20;2.77;;;11.10;99.90;;;;;;5048260;28;20232;-85
2021/04/21 13:09:29;;;;;;;1.10;0.87;;;11.20;99.90;;;;;;5050813;28;20293;-86
2021/04/21 13:12:00;;;;;;;0.90;0.90;;;10.80;99.90;;;;;;5048708;28;20767;-88
2021/04/21 13:14:38;;;;;;;3.67;0.47;;;10.80;99.90;;;;;;5052602;28;20225;-88
2021/04/21 13:17:05;;;;;;;3.67;1.23;;;11.30;99.90;;;;;;5053083;28;20220;-86
2021/04/21 13:19:34;;;;;;;2.57;1.67;;;11.30;99.90;;;;;;5034797;28;20181;-88
2021/04/21 13:22:10;;;;;;;17.57;2.13;;;11.10;99.90;;;;;;5053273;28;20224;-86
2021/04/21 13:24:44;;;;;;;0.70;0.70;;;11.00;99.90;;;;;;5050532;28;20244;-85